createdAt,value
2023-03-26T00:01:44.436Z,99960.31
2023-03-26T00:04:52.518Z,99966.56
2023-03-26T00:08:00.969Z,99966.50
2023-03-26T00:11:10.495Z,99956.44
2023-03-26T00:14:25.425Z,99964.50
2023-03-26T00:17:27.141Z,99961.44
2023-03-26T00:20:42.418Z,99970.47
2023-03-26T00:23:45.005Z,99915.81
2023-03-26T00:26:59.427Z,99962.09
2023-03-26T00:30:15.444Z,99959.88
2023-03-26T00:33:30.486Z,99962.56
2023-03-26T00:36:32.406Z,99968.63
2023-03-26T00:39:47.415Z,99956.00
2023-03-26T00:43:02.424Z,99953.78
2023-03-26T00:46:11.005Z,99948.78
2023-03-26T00:49:19.461Z,99946.63
2023-03-26T00:52:27.972Z,99942.78
2023-03-26T00:55:36.411Z,99946.63
2023-03-26T00:58:45.936Z,99940.44
2023-03-26T01:01:54.481Z,99934.22
2023-03-26T01:05:39.441Z,99920.28
2023-03-26T01:08:46.859Z,99916.44
2023-03-26T01:12:01.468Z,99919.97
2023-03-26T01:15:10.506Z,99917.91
2023-03-26T01:18:22.857Z,99919.44
2023-03-26T01:21:35.421Z,99924.50
2023-03-26T01:24:50.506Z,99938.59
2023-03-26T01:27:58.937Z,99926.53
2023-03-26T01:31:21.430Z,99921.84
2023-03-26T01:34:49.956Z,99932.06
2023-03-26T01:38:21.118Z,99924.37
2023-03-26T01:41:44.509Z,99926.91
2023-03-26T01:44:59.812Z,99936.97
2023-03-26T01:48:15.423Z,99953.41
2023-03-26T01:51:35.741Z,99942.03
2023-03-26T01:54:50.450Z,99939.69
2023-03-26T01:58:19.281Z,99936.12
2023-03-26T02:01:45.545Z,99936.94
2023-03-26T02:05:30.486Z,99937.94
2023-03-26T02:08:42.378Z,99937.41
2023-03-26T02:11:51.825Z,99948.03
2023-03-26T02:15:08.543Z,99952.22
2023-03-26T02:18:10.325Z,99959.94
2023-03-26T02:21:29.499Z,99957.22
2023-03-26T02:24:45.450Z,99964.47
2023-03-26T02:27:55.504Z,99960.09
2023-03-26T02:31:11.580Z,99960.91
2023-03-26T02:34:19.522Z,99957.88
2023-03-26T02:37:28.127Z,99955.84
2023-03-26T02:40:36.745Z,99946.06
2023-03-26T02:43:45.239Z,99947.75
2023-03-26T02:47:10.791Z,99940.87
2023-03-26T02:50:19.886Z,99938.50
2023-03-26T02:53:28.738Z,99923.00
2023-03-26T02:56:43.548Z,99935.94
2023-03-26T02:59:51.477Z,99922.19
2023-03-26T03:03:07.588Z,99916.84
2023-03-26T03:06:16.460Z,99923.72
2023-03-26T03:09:25.197Z,99924.06
2023-03-26T03:12:33.485Z,99935.00
2023-03-26T03:15:48.601Z,99927.56
2023-03-26T03:18:50.409Z,99925.41
2023-03-26T03:22:06.212Z,99920.88
2023-03-26T03:25:09.115Z,99929.28
2023-03-26T03:28:23.512Z,99938.31
2023-03-26T03:31:32.535Z,99932.94
2023-03-26T03:34:47.550Z,99930.72
2023-03-26T03:37:55.483Z,99936.25
2023-03-26T03:41:17.534Z,99932.37
2023-03-26T03:44:19.528Z,99925.63
2023-03-26T03:47:34.574Z,99936.06
2023-03-26T03:50:42.540Z,99944.81
2023-03-26T03:53:51.101Z,99953.19
2023-03-26T03:56:59.573Z,99952.56
2023-03-26T04:00:09.171Z,99951.06
2023-03-26T04:03:33.082Z,99946.66
2023-03-26T04:06:35.833Z,99958.34
2023-03-26T04:09:50.530Z,99965.88
2023-03-26T04:13:05.522Z,99970.84
2023-03-26T04:16:14.597Z,99965.44
2023-03-26T04:19:29.616Z,99967.03
2023-03-26T04:22:31.390Z,99958.75
2023-03-26T04:25:52.790Z,99959.12
2023-03-26T04:29:05.534Z,99956.34
2023-03-26T04:32:32.597Z,99946.66
2023-03-26T04:35:47.528Z,99947.87
2023-03-26T04:38:49.949Z,99954.59
2023-03-26T04:42:11.557Z,99948.94
2023-03-26T04:45:21.557Z,99952.75
2023-03-26T04:48:30.725Z,99964.47
2023-03-26T04:51:47.650Z,99964.47
2023-03-26T04:54:57.085Z,99963.66
2023-03-26T04:58:05.615Z,99957.88
2023-03-26T05:01:14.216Z,99967.38
2023-03-26T05:04:22.609Z,99973.41
2023-03-26T05:07:31.122Z,99962.81
2023-03-26T05:10:39.603Z,99959.50
2023-03-26T05:13:49.006Z,99948.13
2023-03-26T05:16:57.634Z,99951.91
2023-03-26T05:20:08.462Z,99956.94
2023-03-26T05:23:22.653Z,99951.31
2023-03-26T05:26:45.593Z,99958.06
2023-03-26T05:29:54.569Z,99963.81
2023-03-26T05:33:03.405Z,99957.78
2023-03-26T05:36:14.549Z,99946.63
2023-03-26T05:39:29.585Z,99955.53
2023-03-26T05:42:51.557Z,99955.00
2023-03-26T05:46:00.708Z,99962.91
2023-03-26T05:49:09.215Z,99953.00
2023-03-26T05:52:23.561Z,99918.16
2023-03-26T05:55:38.672Z,99966.62
2023-03-26T05:58:47.740Z,99963.75
2023-03-26T06:02:02.569Z,99969.50
2023-03-26T06:05:12.286Z,99957.06
2023-03-26T06:08:21.565Z,99954.87
2023-03-26T06:11:29.573Z,99959.06
2023-03-26T06:14:38.210Z,99958.22
2023-03-26T06:17:46.631Z,99955.22
2023-03-26T06:20:56.199Z,99945.47
2023-03-26T06:24:12.614Z,99942.97
2023-03-26T06:27:14.248Z,99949.38
2023-03-26T06:30:30.626Z,99944.31
2023-03-26T06:33:32.568Z,99943.47
2023-03-26T06:36:47.595Z,99942.44
2023-03-26T06:39:55.593Z,99937.56
2023-03-26T06:43:11.210Z,99941.06
2023-03-26T06:46:25.660Z,99940.41
2023-03-26T06:49:27.654Z,99937.25
2023-03-26T06:52:42.602Z,99936.09
2023-03-26T06:56:00.611Z,99940.34
2023-03-26T06:59:02.703Z,99935.91
2023-03-26T07:02:17.601Z,99944.72
2023-03-26T07:05:20.030Z,99939.75
2023-03-26T07:08:34.626Z,99931.41
2023-03-26T07:11:49.631Z,99930.69
2023-03-26T07:14:59.655Z,99932.63
2023-03-26T07:18:14.634Z,99935.81
2023-03-26T07:21:16.649Z,99934.78
2023-03-26T07:24:32.734Z,99938.13
2023-03-26T07:27:51.610Z,99942.06
2023-03-26T07:31:29.758Z,99950.72
2023-03-26T07:35:01.621Z,99950.19
2023-03-26T07:38:23.885Z,99945.75
2023-03-26T07:41:58.951Z,99948.50
2023-03-26T07:45:27.658Z,99954.03
2023-03-26T07:48:41.971Z,99951.81
2023-03-26T07:51:50.632Z,99948.25
2023-03-26T07:54:59.404Z,99945.09
2023-03-26T07:58:35.662Z,99953.00
2023-03-26T08:02:09.728Z,99962.09
2023-03-26T08:05:33.256Z,99958.03
2023-03-26T08:08:59.686Z,99958.56
2023-03-26T08:12:22.935Z,99952.44
2023-03-26T08:15:38.057Z,99954.19
2023-03-26T08:18:58.638Z,99947.59
2023-03-26T08:22:24.654Z,99943.50
2023-03-26T08:25:36.023Z,99952.66
2023-03-26T08:29:08.691Z,99942.69
2023-03-26T08:32:27.096Z,99941.31
2023-03-26T08:35:28.905Z,99947.53
2023-03-26T08:38:45.673Z,99946.13
2023-03-26T08:42:22.328Z,99939.47
2023-03-26T08:46:12.719Z,99940.91
2023-03-26T08:49:52.668Z,99941.00
2023-03-26T08:53:31.049Z,99926.06
2023-03-26T08:57:15.680Z,99931.50
2023-03-26T09:00:39.604Z,99923.66
2023-03-26T09:04:23.734Z,99926.56
2023-03-26T09:08:05.755Z,99919.69
2023-03-26T09:11:53.674Z,99919.19
2023-03-26T09:15:17.069Z,99917.72
2023-03-26T09:18:52.509Z,99910.81
2023-03-26T09:22:12.795Z,99914.53
2023-03-26T09:25:45.718Z,99900.34
2023-03-26T09:29:24.681Z,99896.03
2023-03-26T09:33:04.745Z,99896.63
2023-03-26T09:36:26.806Z,99895.81
2023-03-26T09:39:47.079Z,99891.06
2023-03-26T09:43:27.716Z,99892.59
2023-03-26T09:46:55.361Z,99886.16
2023-03-26T09:50:28.706Z,99874.84
2023-03-26T09:54:07.281Z,99880.56
2023-03-26T09:57:50.780Z,99867.88
2023-03-26T10:01:26.700Z,99858.63
2023-03-26T10:05:22.126Z,99857.91
2023-03-26T10:08:59.819Z,99845.81
2023-03-26T10:12:24.725Z,99839.91
2023-03-26T10:15:39.913Z,99834.37
2023-03-26T10:19:15.718Z,99823.75
2023-03-26T10:22:49.742Z,99831.41
2023-03-26T10:26:13.570Z,99828.09
2023-03-26T10:29:58.748Z,99827.88
2023-03-26T10:33:29.024Z,99834.88
2023-03-26T10:36:51.013Z,99876.28
2023-03-26T10:40:22.800Z,99865.53
2023-03-26T10:44:08.483Z,99864.81
2023-03-26T10:47:37.724Z,99839.66
2023-03-26T10:51:20.054Z,99833.16
2023-03-26T10:54:52.714Z,99817.84
2023-03-26T10:58:25.746Z,99816.31
2023-03-26T11:01:53.823Z,99799.84
2023-03-26T11:05:41.931Z,99797.31
2023-03-26T11:08:55.042Z,99784.50
2023-03-26T11:12:32.781Z,99786.47
2023-03-26T11:15:52.128Z,99778.97
2023-03-26T11:19:17.780Z,99773.19
2023-03-26T11:23:00.736Z,99769.03
2023-03-26T11:26:22.802Z,99745.44
2023-03-26T11:29:40.723Z,99743.78
2023-03-26T11:33:01.135Z,99736.38
2023-03-26T11:36:13.703Z,99733.94
2023-03-26T11:39:30.755Z,99723.31
2023-03-26T11:42:47.891Z,99710.84
2023-03-26T11:45:57.752Z,99704.97
2023-03-26T11:49:17.770Z,99698.41
2023-03-26T11:52:33.839Z,99687.63
2023-03-26T11:55:41.762Z,99683.25
2023-03-26T11:58:58.858Z,99683.91
2023-03-26T12:02:34.009Z,99668.22
2023-03-26T12:06:03.802Z,99660.75
2023-03-26T12:09:24.090Z,99650.72
2023-03-26T12:12:38.425Z,99635.28
2023-03-26T12:15:52.842Z,99636.56
2023-03-26T12:19:02.866Z,99625.66
2023-03-26T12:22:36.804Z,99624.41
2023-03-26T12:25:52.807Z,99607.44
2023-03-26T12:29:14.806Z,99611.13
2023-03-26T12:32:16.545Z,99596.19
2023-03-26T12:35:34.094Z,99588.97
2023-03-26T12:39:15.928Z,99583.81
2023-03-26T12:44:50.754Z,99576.88
2023-03-26T12:47:57.602Z,99573.09
2023-03-26T12:50:05.834Z,99559.47
2023-03-26T12:53:53.516Z,99555.69
2023-03-26T12:57:24.858Z,99548.38
2023-03-26T13:00:59.101Z,99552.25
2023-03-26T13:04:29.167Z,99552.66
2023-03-26T13:07:57.837Z,99551.41
2023-03-26T13:11:42.838Z,99540.44
2023-03-26T13:15:08.595Z,99526.31
2023-03-26T13:18:41.946Z,99521.06
2023-03-26T13:22:00.246Z,99504.09
2023-03-26T13:25:30.825Z,99502.62
2023-03-26T13:28:50.653Z,99493.41
2023-03-26T13:32:28.867Z,99482.87
2023-03-26T13:36:06.570Z,99488.75
2023-03-26T13:39:33.799Z,99472.00
2023-03-26T13:43:08.858Z,99475.56
2023-03-26T13:46:37.894Z,99474.38
2023-03-26T13:49:56.189Z,99467.41
2023-03-26T13:53:20.141Z,99455.44
2023-03-26T13:56:40.046Z,99462.53
2023-03-26T14:00:03.162Z,99457.44
2023-03-26T14:03:30.900Z,99440.34
2023-03-26T14:06:44.013Z,99440.56
2023-03-26T14:10:13.883Z,99439.25
2023-03-26T14:13:33.326Z,99421.19
2023-03-26T14:16:57.879Z,99411.50
2023-03-26T14:20:34.983Z,99408.50
2023-03-26T14:24:13.189Z,99418.91
2023-03-26T14:27:44.146Z,99407.81
2023-03-26T14:31:14.897Z,99397.66
2023-03-26T14:34:45.585Z,99402.62
2023-03-26T14:38:20.908Z,99403.38
2023-03-26T14:41:55.845Z,99398.59
2023-03-26T14:45:31.317Z,99385.94
2023-03-26T14:49:19.854Z,99388.31
2023-03-26T14:52:37.466Z,99381.94
2023-03-26T14:56:15.043Z,99373.88
2023-03-26T14:59:44.933Z,99376.00
2023-03-26T15:03:26.513Z,99370.09
2023-03-26T15:07:12.181Z,99360.41
2023-03-26T15:10:50.905Z,99353.19
2023-03-26T15:14:09.437Z,99346.31
2023-03-26T15:17:47.965Z,99337.41
2023-03-26T15:21:30.112Z,99335.19
2023-03-26T15:25:21.026Z,99327.78
2023-03-26T15:28:48.941Z,99327.22
2023-03-26T15:32:33.770Z,99317.84
2023-03-26T15:36:28.892Z,99303.06
2023-03-26T15:39:59.311Z,99307.06
2023-03-26T15:43:12.973Z,99300.59
2023-03-26T15:46:40.178Z,99305.78
2023-03-26T15:49:47.598Z,99299.06
2023-03-26T15:53:21.929Z,99308.56
2023-03-26T15:56:53.196Z,99299.63
2023-03-26T16:00:23.228Z,99294.28
2023-03-26T16:03:47.922Z,99290.66
2023-03-26T16:07:06.927Z,99275.09
2023-03-26T16:10:27.586Z,99279.50
2023-03-26T16:13:46.947Z,99267.44
2023-03-26T16:17:04.925Z,99269.97
2023-03-26T16:20:38.930Z,99251.03
2023-03-26T16:24:03.033Z,99249.44
2023-03-26T16:27:26.249Z,99231.75
2023-03-26T16:30:36.985Z,99235.97
2023-03-26T16:34:12.002Z,99223.06
2023-03-26T16:37:37.397Z,99224.56
2023-03-26T16:41:06.979Z,99229.19
2023-03-26T16:44:38.134Z,99231.28
2023-03-26T16:47:57.999Z,99233.84
2023-03-26T16:51:37.697Z,99235.97
2023-03-26T16:54:56.995Z,99240.78
2023-03-26T16:58:30.062Z,99239.16
2023-03-26T17:01:51.983Z,99242.09
2023-03-26T17:05:17.220Z,99239.19
2023-03-26T17:08:47.001Z,99238.59
2023-03-26T17:12:14.936Z,99230.94
2023-03-26T17:15:47.187Z,99228.84
2023-03-26T17:19:14.104Z,99235.31
2023-03-26T17:22:50.713Z,99241.97
2023-03-26T17:26:22.998Z,99230.53
2023-03-26T17:29:40.028Z,99244.28
2023-03-26T17:32:59.213Z,99242.41
2023-03-26T17:36:42.966Z,99239.72
2023-03-26T17:40:20.389Z,99242.62
2023-03-26T17:43:40.762Z,99242.59
2023-03-26T17:46:57.026Z,99237.41
2023-03-26T17:50:17.682Z,99241.59
2023-03-26T17:53:31.197Z,99238.87
2023-03-26T17:56:46.993Z,99234.31
2023-03-26T18:00:05.165Z,99228.06
2023-03-26T18:03:34.015Z,99230.56
2023-03-26T18:06:52.139Z,99232.25
2023-03-26T18:10:38.030Z,99234.09
2023-03-26T18:14:10.737Z,99233.69
2023-03-26T18:17:25.013Z,99238.87
2023-03-26T18:20:34.989Z,99233.66
2023-03-26T18:23:53.998Z,99232.25
2023-03-26T18:27:13.235Z,99234.72
2023-03-26T18:30:30.377Z,99233.66
2023-03-26T18:33:49.034Z,99223.69
2023-03-26T18:37:10.807Z,99222.87
2023-03-26T18:40:26.014Z,99215.13
2023-03-26T18:43:49.055Z,99210.78
2023-03-26T18:46:57.805Z,99202.47
2023-03-26T18:50:12.989Z,99198.09
2023-03-26T18:56:50.609Z,99190.84
2023-03-26T19:00:22.344Z,99188.56
2023-03-26T19:03:25.264Z,99169.81
2023-03-26T19:06:45.007Z,99168.16
2023-03-26T19:09:46.852Z,99162.97
2023-03-26T19:13:04.061Z,99167.34
2023-03-26T19:16:15.495Z,99157.53
2023-03-26T19:19:43.082Z,99161.09
2023-03-26T19:22:47.185Z,99157.56
2023-03-26T19:26:03.024Z,99159.88
2023-03-26T19:29:12.086Z,99153.63
2023-03-26T19:32:28.693Z,99146.56
2023-03-26T19:35:44.122Z,99147.59
2023-03-26T19:39:09.077Z,99136.56
2023-03-26T19:42:15.502Z,99129.50
2023-03-26T19:45:59.801Z,99117.87
2023-03-26T19:49:38.064Z,99113.50
2023-03-26T19:52:39.695Z,99106.44
2023-03-26T19:56:06.315Z,99096.22
2023-03-26T19:59:08.213Z,99093.53
2023-03-26T20:02:23.205Z,99078.56
2023-03-26T20:05:28.931Z,99082.94
2023-03-26T20:08:44.209Z,99070.47
2023-03-26T20:11:52.078Z,99065.06
2023-03-26T20:15:07.084Z,99058.00
2023-03-26T20:18:34.129Z,99048.63
2023-03-26T20:21:45.094Z,99039.72
2023-03-26T20:24:53.728Z,99038.06
2023-03-26T20:28:08.050Z,99025.19
2023-03-26T20:31:14.383Z,99021.47
2023-03-26T20:34:30.133Z,99020.44
2023-03-26T20:37:38.954Z,99011.50
2023-03-26T20:40:48.190Z,99010.22
2023-03-26T20:44:03.752Z,99009.00
2023-03-26T20:47:12.489Z,98998.19
2023-03-26T20:50:22.589Z,99003.81
2023-03-26T20:53:31.088Z,99004.03
2023-03-26T20:56:46.087Z,99000.72
2023-03-26T20:59:54.578Z,98994.47
2023-03-26T21:03:03.098Z,98996.75
2023-03-26T21:06:13.241Z,98989.69
2023-03-26T21:09:28.911Z,98977.63
2023-03-26T21:12:34.781Z,98972.22
2023-03-26T21:15:49.163Z,98968.09
2023-03-26T21:18:58.080Z,98971.19
2023-03-26T21:22:29.118Z,98971.63
2023-03-26T21:25:52.819Z,98968.53
2023-03-26T21:29:00.832Z,98988.88
2023-03-26T21:32:09.110Z,98992.63
2023-03-26T21:35:25.154Z,99007.81
2023-03-26T21:38:34.199Z,99008.22
2023-03-26T21:42:05.026Z,99026.50
2023-03-26T21:45:15.114Z,99030.66
2023-03-26T21:48:30.137Z,99030.44
2023-03-26T21:51:33.226Z,99032.25
2023-03-26T21:54:48.175Z,99031.22
2023-03-26T21:58:25.122Z,99022.50
2023-03-26T22:01:50.200Z,99016.50
2023-03-26T22:05:04.135Z,99009.63
2023-03-26T22:08:32.743Z,99012.97
2023-03-26T22:11:41.136Z,99010.03
2023-03-26T22:14:49.608Z,99012.53
2023-03-26T22:17:58.202Z,99001.50
2023-03-26T22:21:13.153Z,98997.78
2023-03-26T22:24:22.009Z,98994.87
2023-03-26T22:27:43.834Z,98993.41
2023-03-26T22:30:54.618Z,98996.06
2023-03-26T22:34:03.401Z,98998.50
2023-03-26T22:37:21.840Z,98991.03
2023-03-26T22:40:23.698Z,98985.41
2023-03-26T22:43:38.121Z,98989.53
2023-03-26T22:46:40.131Z,98984.25
2023-03-26T22:49:55.238Z,98976.16
2023-03-26T22:52:57.331Z,98971.63
2023-03-26T22:56:13.906Z,98965.56
2023-03-26T22:59:15.601Z,98963.56
2023-03-26T23:02:30.185Z,98948.03
2023-03-26T23:05:31.966Z,98949.91
2023-03-26T23:08:46.152Z,98942.66
2023-03-26T23:11:55.147Z,98942.91
2023-03-26T23:15:05.449Z,98927.94
2023-03-26T23:18:13.275Z,98940.47
2023-03-26T23:21:22.465Z,98930.56
2023-03-26T23:24:31.224Z,98927.66
2023-03-26T23:27:39.728Z,98931.78
2023-03-26T23:30:52.157Z,98929.75
2023-03-26T23:34:00.704Z,98918.97
2023-03-26T23:37:09.482Z,98920.16
2023-03-26T23:40:24.168Z,98916.78
2023-03-26T23:43:33.165Z,98906.72
2023-03-26T23:46:48.409Z,98905.06
2023-03-26T23:49:56.787Z,98897.81
2023-03-26T23:53:05.290Z,98890.59
2023-03-26T23:56:14.119Z,98869.22
2023-03-26T23:59:22.166Z,98873.13
